createdAt,value
2017-06-30T00:01:13.253Z,68.62
2017-06-30T00:02:13.280Z,68.52
2017-06-30T00:03:13.218Z,68.52
2017-06-30T00:04:13.458Z,68.52
2017-06-30T00:05:13.094Z,68.72
2017-06-30T00:06:13.033Z,68.04
2017-06-30T00:07:12.973Z,68.78
2017-06-30T00:08:12.910Z,68.62
2017-06-30T00:09:13.101Z,68.52
2017-06-30T00:10:12.787Z,68.52
2017-06-30T00:11:12.726Z,68.62
2017-06-30T00:12:12.666Z,68.72
2017-06-30T00:13:12.605Z,68.62
2017-06-30T00:14:12.545Z,68.62
2017-06-30T00:15:12.481Z,68.72
2017-06-30T00:16:12.420Z,68.14
2017-06-30T00:17:12.358Z,68.43
2017-06-30T00:18:12.298Z,68.52
2017-06-30T00:19:12.238Z,68.24
2017-06-30T00:20:12.201Z,68.62
2017-06-30T00:21:12.129Z,68.14
2017-06-30T00:22:12.051Z,68.43
2017-06-30T00:23:11.996Z,68.04
2017-06-30T00:24:11.928Z,68.04
2017-06-30T00:25:11.867Z,68.24
2017-06-30T00:26:11.805Z,68.24
2017-06-30T00:27:11.745Z,68.24
2017-06-30T00:28:11.682Z,68.04
2017-06-30T00:29:11.626Z,68.04
2017-06-30T00:30:11.563Z,68.04
2017-06-30T00:31:11.498Z,68.04
2017-06-30T00:32:11.437Z,68.14
2017-06-30T00:33:11.378Z,68.04
2017-06-30T00:34:11.313Z,68.24
2017-06-30T00:35:11.403Z,68.04
2017-06-30T00:36:11.192Z,68.24
2017-06-30T00:37:11.143Z,67.75
2017-06-30T00:38:11.070Z,68.43
2017-06-30T00:39:11.007Z,67.75
2017-06-30T00:40:10.948Z,68.04
2017-06-30T00:41:10.887Z,68.04
2017-06-30T00:42:10.822Z,67.75
2017-06-30T00:43:10.763Z,67.85
2017-06-30T00:44:10.699Z,67.85
2017-06-30T00:45:10.639Z,67.75
2017-06-30T00:46:10.578Z,67.85
2017-06-30T00:47:10.522Z,67.91
2017-06-30T00:48:10.454Z,67.94
2017-06-30T00:49:10.396Z,67.94
2017-06-30T00:50:10.582Z,68.04
2017-06-30T00:51:10.272Z,68.01
2017-06-30T00:52:10.211Z,67.94
2017-06-30T00:53:10.148Z,67.85
2017-06-30T00:54:09.794Z,68.04
2017-06-30T00:55:10.325Z,68.04
2017-06-30T00:56:10.218Z,67.94
2017-06-30T00:57:09.901Z,67.75
2017-06-30T00:58:09.848Z,67.85
2017-06-30T00:59:09.779Z,67.94
2017-06-30T01:00:24.318Z,68.04
2017-06-30T01:01:09.907Z,67.94
2017-06-30T01:02:09.596Z,67.94
2017-06-30T01:03:09.543Z,67.56
2017-06-30T01:04:09.471Z,67.94
2017-06-30T01:05:09.412Z,67.66
2017-06-30T01:06:09.348Z,67.56
2017-06-30T01:07:09.288Z,67.75
2017-06-30T01:08:09.228Z,67.66
2017-06-30T01:09:09.167Z,67.85
2017-06-30T01:11:09.042Z,67.75
2017-06-30T01:12:08.980Z,67.85
2017-06-30T01:13:08.921Z,67.56
2017-06-30T01:14:08.860Z,67.94
2017-06-30T01:15:09.054Z,67.85
2017-06-30T01:16:08.736Z,67.66
2017-06-30T01:17:08.677Z,67.94
2017-06-30T01:18:08.613Z,67.56
2017-06-30T01:19:08.555Z,67.75
2017-06-30T01:20:08.741Z,67.94
2017-06-30T01:21:08.430Z,68.04
2017-06-30T01:22:08.066Z,67.85
2017-06-30T01:23:08.309Z,67.85
2017-06-30T01:24:08.253Z,68.04
2017-06-30T01:25:08.598Z,67.66
2017-06-30T01:26:07.825Z,67.94
2017-06-30T01:27:07.758Z,67.85
2017-06-30T01:28:07.698Z,67.66
2017-06-30T01:29:07.938Z,68.04
2017-06-30T01:30:08.125Z,67.56
2017-06-30T01:31:07.814Z,67.66
2017-06-30T01:32:07.753Z,67.85
2017-06-30T01:33:07.691Z,67.66
2017-06-30T01:34:07.632Z,68.04
2017-06-30T01:35:07.719Z,67.94
2017-06-30T01:36:07.759Z,67.66
2017-06-30T01:37:07.448Z,67.75
2017-06-30T01:38:07.391Z,67.66
2017-06-30T01:39:07.324Z,67.56
2017-06-30T01:40:07.363Z,67.75
2017-06-30T01:41:07.205Z,67.52
2017-06-30T01:42:07.143Z,67.85
2017-06-30T01:43:07.082Z,67.75
2017-06-30T01:44:07.016Z,67.75
2017-06-30T01:45:06.955Z,67.36
2017-06-30T01:46:06.893Z,67.27
2017-06-30T01:47:06.833Z,67.46
2017-06-30T01:48:06.772Z,67.66
2017-06-30T01:49:06.412Z,67.75
2017-06-30T01:50:06.748Z,67.85
2017-06-30T01:51:06.590Z,67.75
2017-06-30T01:52:06.550Z,67.56
2017-06-30T01:53:06.164Z,67.75
2017-06-30T01:54:06.403Z,67.66
2017-06-30T01:55:06.743Z,67.75
2017-06-30T01:56:05.982Z,67.46
2017-06-30T01:57:06.017Z,67.46
2017-06-30T01:58:06.156Z,67.85
2017-06-30T01:59:06.096Z,67.94
2017-06-30T02:00:06.135Z,67.66
2017-06-30T02:01:05.975Z,67.66
2017-06-30T02:02:06.165Z,67.46
2017-06-30T02:03:05.852Z,67.27
2017-06-30T02:04:05.788Z,67.66
2017-06-30T02:05:05.726Z,67.85
2017-06-30T02:06:05.665Z,67.72
2017-06-30T02:07:05.312Z,67.94
2017-06-30T02:08:05.544Z,67.94
2017-06-30T02:09:05.483Z,67.94
2017-06-30T02:10:05.423Z,67.62
2017-06-30T02:11:05.360Z,67.17
2017-06-30T02:12:05.296Z,67.72
2017-06-30T02:13:05.239Z,67.85
2017-06-30T02:14:05.177Z,67.75
2017-06-30T02:15:05.114Z,67.17
2017-06-30T02:16:05.051Z,67.36
2017-06-30T02:17:04.992Z,67.36
2017-06-30T02:18:04.928Z,67.17
2017-06-30T02:19:04.875Z,67.36
2017-06-30T02:20:04.810Z,67.27
2017-06-30T02:21:04.746Z,67.27
2017-06-30T02:22:04.684Z,67.36
2017-06-30T02:23:04.322Z,67.17
2017-06-30T02:24:04.562Z,67.27
2017-06-30T02:25:04.500Z,67.36
2017-06-30T02:26:04.438Z,67.46
2017-06-30T02:27:04.378Z,67.17
2017-06-30T02:28:04.317Z,67.56
2017-06-30T02:29:04.254Z,67.46
2017-06-30T02:30:04.196Z,67.46
2017-06-30T02:31:04.147Z,67.27
2017-06-30T02:32:04.074Z,67.27
2017-06-30T02:33:04.027Z,67.17
2017-06-30T02:34:03.947Z,67.17
2017-06-30T02:35:03.885Z,67.56
2017-06-30T02:36:03.825Z,67.36
2017-06-30T02:37:03.461Z,66.88
2017-06-30T02:38:03.403Z,67.27
2017-06-30T02:39:03.644Z,67.36
2017-06-30T02:40:03.580Z,66.98
2017-06-30T02:41:03.523Z,67.36
2017-06-30T02:42:03.459Z,67.08
2017-06-30T02:43:03.394Z,67.36
2017-06-30T02:44:03.332Z,67.36
2017-06-30T02:45:03.271Z,67.46
2017-06-30T02:46:03.210Z,67.08
2017-06-30T02:47:03.151Z,67.36
2017-06-30T02:48:03.088Z,67.27
2017-06-30T02:49:03.025Z,66.78
2017-06-30T02:50:02.965Z,66.98
2017-06-30T02:51:03.509Z,67.56
2017-06-30T02:52:02.840Z,67.56
2017-06-30T02:53:02.784Z,67.46
2017-06-30T02:54:02.719Z,67.36
2017-06-30T02:55:02.656Z,67.17
2017-06-30T02:56:02.596Z,67.36
2017-06-30T02:57:02.534Z,67.36
2017-06-30T02:58:02.474Z,66.88
2017-06-30T02:59:02.416Z,67.27
2017-06-30T03:00:02.350Z,67.36
2017-06-30T03:01:02.289Z,67.56
2017-06-30T03:02:02.227Z,67.17
2017-06-30T03:03:02.166Z,67.56
2017-06-30T03:04:02.103Z,67.36
2017-06-30T03:05:02.043Z,67.27
2017-06-30T03:06:01.685Z,67.56
2017-06-30T03:07:01.918Z,67.36
2017-06-30T03:08:01.857Z,67.08
2017-06-30T03:09:01.798Z,67.56
2017-06-30T03:10:01.734Z,67.36
2017-06-30T03:11:01.683Z,66.88
2017-06-30T03:12:01.614Z,66.78
2017-06-30T03:13:01.551Z,66.78
2017-06-30T03:14:01.489Z,66.98
2017-06-30T03:15:01.429Z,66.5
2017-06-30T03:16:01.369Z,67.17
2017-06-30T03:17:01.308Z,66.78
2017-06-30T03:18:01.253Z,66.98
2017-06-30T03:19:01.394Z,66.69
2017-06-30T03:20:01.121Z,66.98
2017-06-30T03:21:01.059Z,66.78
2017-06-30T03:22:00.999Z,66.5
2017-06-30T03:23:00.938Z,66.78
2017-06-30T03:24:00.877Z,66.59
2017-06-30T03:25:00.817Z,66.59
2017-06-30T03:26:00.753Z,66.69
2017-06-30T03:27:00.692Z,66.88
2017-06-30T03:28:00.630Z,66.69
2017-06-30T03:29:00.569Z,66.5
2017-06-30T03:30:00.508Z,66.56
2017-06-30T03:31:00.446Z,66.75
2017-06-30T03:32:00.387Z,66.66
2017-06-30T03:33:00.323Z,66.88
2017-06-30T03:34:00.262Z,66.56
2017-06-30T03:35:00.205Z,66.78
2017-06-30T03:36:00.137Z,66.69
2017-06-30T03:37:00.078Z,66.66
2017-06-30T03:38:00.016Z,66.59
2017-06-30T03:38:59.955Z,66.78
2017-06-30T03:39:59.893Z,66.66
2017-06-30T03:40:59.834Z,66.5
2017-06-30T03:41:59.769Z,66.69
2017-06-30T03:42:59.708Z,66.4
2017-06-30T03:43:59.648Z,66.36
2017-06-30T03:44:59.586Z,66.46
2017-06-30T03:45:59.526Z,66.5
2017-06-30T03:46:59.461Z,66.4
2017-06-30T03:47:59.402Z,66.5
2017-06-30T03:48:59.339Z,66.59
2017-06-30T03:49:59.277Z,66.78
2017-06-30T03:50:59.224Z,67.08
2017-06-30T03:51:59.155Z,66.4
2017-06-30T03:52:59.094Z,66.98
2017-06-30T03:53:59.030Z,66.66
2017-06-30T03:54:58.969Z,66.85
2017-06-30T03:55:58.909Z,66.98
2017-06-30T03:56:58.848Z,66.78
2017-06-30T03:57:58.785Z,66.78
2017-06-30T03:58:58.726Z,66.56
2017-06-30T03:59:58.663Z,66.46
2017-06-30T04:00:58.601Z,66.59
2017-06-30T04:01:58.539Z,66.78
2017-06-30T04:02:58.480Z,66.69
2017-06-30T04:03:58.418Z,66.36
2017-06-30T04:04:58.358Z,66.36
2017-06-30T04:05:58.293Z,67.14
2017-06-30T04:06:58.265Z,67.75
2017-06-30T04:07:58.172Z,66.78
2017-06-30T04:08:58.113Z,66.5
2017-06-30T04:09:58.050Z,66.98
2017-06-30T04:10:57.988Z,66.5
2017-06-30T04:11:57.926Z,66.69
2017-06-30T04:12:57.863Z,66.59
2017-06-30T04:13:57.807Z,66.59
2017-06-30T04:14:57.742Z,66.11
2017-06-30T04:15:57.680Z,66.69
2017-06-30T04:16:57.619Z,66.3
2017-06-30T04:17:57.556Z,65.92
2017-06-30T04:18:57.495Z,65.53
2017-06-30T04:19:57.435Z,65.72
2017-06-30T04:20:57.374Z,65.72
2017-06-30T04:21:57.313Z,66.11
2017-06-30T04:22:57.251Z,66.2
2017-06-30T04:23:57.188Z,66.2
2017-06-30T04:24:57.127Z,65.53
2017-06-30T04:25:57.066Z,65.63
2017-06-30T04:26:57.004Z,65.63
2017-06-30T04:27:56.941Z,65.34
2017-06-30T04:28:56.880Z,65.24
2017-06-30T04:29:56.820Z,65.43
2017-06-30T04:30:56.756Z,65.24
2017-06-30T04:31:56.696Z,65.14
2017-06-30T04:32:56.635Z,65.24
2017-06-30T04:33:56.614Z,64.66
2017-06-30T04:34:56.511Z,64.47
2017-06-30T04:35:56.451Z,64.66
2017-06-30T04:36:56.401Z,64.85
2017-06-30T04:37:56.327Z,64.76
2017-06-30T04:38:56.267Z,64.37
2017-06-30T04:39:56.207Z,64.66
2017-06-30T04:40:56.144Z,64.37
2017-06-30T04:41:56.080Z,64.37
2017-06-30T04:42:56.033Z,64.08
2017-06-30T04:43:55.961Z,64.27
2017-06-30T04:44:55.897Z,63.89
2017-06-30T04:45:55.839Z,64.56
2017-06-30T04:46:55.786Z,63.98
2017-06-30T04:47:55.712Z,63.6
2017-06-30T04:48:55.653Z,63.89
2017-06-30T04:49:55.589Z,63.79
2017-06-30T04:50:55.533Z,64.08
2017-06-30T04:51:55.474Z,63.4
2017-06-30T04:52:55.405Z,63.31
2017-06-30T04:53:55.345Z,63.28
2017-06-30T04:54:55.283Z,63.69
2017-06-30T04:55:55.222Z,63.69
2017-06-30T04:56:55.158Z,63.5
2017-06-30T04:57:55.098Z,63.5
2017-06-30T04:58:55.038Z,63.21
2017-06-30T04:59:54.980Z,63.21
2017-06-30T05:00:54.915Z,62.92
2017-06-30T05:01:54.853Z,62.79
2017-06-30T05:02:54.793Z,62.92
2017-06-30T05:03:54.731Z,62.92
2017-06-30T05:04:54.666Z,62.82
2017-06-30T05:05:54.755Z,63.02
2017-06-30T05:06:54.545Z,62.92
2017-06-30T05:07:54.493Z,62.92
2017-06-30T05:08:54.420Z,62.73
2017-06-30T05:09:54.359Z,62.89
2017-06-30T05:10:54.297Z,62.73
2017-06-30T05:11:54.235Z,62.7
2017-06-30T05:12:53.873Z,62.73
2017-06-30T05:13:54.114Z,62.31
2017-06-30T05:14:54.050Z,62.4
2017-06-30T05:15:53.688Z,62.53
2017-06-30T05:16:53.928Z,62.6
2017-06-30T05:17:53.870Z,62.31
2017-06-30T05:18:53.807Z,62.15
2017-06-30T05:19:53.744Z,62.53
2017-06-30T05:20:53.683Z,62.4
2017-06-30T05:21:53.622Z,62.4
2017-06-30T05:22:53.567Z,62.4
2017-06-30T05:23:53.497Z,62.31
2017-06-30T05:24:53.437Z,62.4
2017-06-30T05:25:53.374Z,62.31
2017-06-30T05:26:53.312Z,61.76
2017-06-30T05:27:53.250Z,62.02
2017-06-30T05:28:53.188Z,61.86
2017-06-30T05:29:53.129Z,61.92
2017-06-30T05:30:53.067Z,61.83
2017-06-30T05:31:53.005Z,61.57
2017-06-30T05:32:52.943Z,61.44
2017-06-30T05:33:52.883Z,61.54
2017-06-30T05:34:52.821Z,61.63
2017-06-30T05:35:52.759Z,61.73
2017-06-30T05:36:52.704Z,61.44
2017-06-30T05:37:52.642Z,61.54
2017-06-30T05:38:52.576Z,61.66
2017-06-30T05:39:52.514Z,61.54
2017-06-30T05:40:52.453Z,61.86
2017-06-30T05:41:52.399Z,61.92
2017-06-30T05:42:52.327Z,61.92
2017-06-30T05:43:52.265Z,61.83
2017-06-30T05:44:52.203Z,61.63
2017-06-30T05:45:52.142Z,61.57
2017-06-30T05:46:52.088Z,61.54
2017-06-30T05:47:52.025Z,61.47
2017-06-30T05:48:51.966Z,61.63
2017-06-30T05:49:51.896Z,61.54
2017-06-30T05:50:51.834Z,61.25
2017-06-30T05:51:51.774Z,61.63
2017-06-30T05:52:51.712Z,61.54
2017-06-30T05:53:51.649Z,61.54
2017-06-30T05:54:51.587Z,61.25
2017-06-30T05:55:51.531Z,61.54
2017-06-30T05:56:51.466Z,61.05
2017-06-30T05:57:51.403Z,61.05
2017-06-30T05:58:51.345Z,61.15
2017-06-30T05:59:51.282Z,61.15
2017-06-30T06:00:51.220Z,61.15
2017-06-30T06:01:51.156Z,61.15
2017-06-30T06:02:51.101Z,61.05
2017-06-30T06:03:51.041Z,60.96
2017-06-30T06:04:50.976Z,61.25
2017-06-30T06:05:50.908Z,61.15
2017-06-30T06:06:50.847Z,61.15
2017-06-30T06:07:50.787Z,61.34
2017-06-30T06:08:50.725Z,61.15
2017-06-30T06:09:50.668Z,61.15
2017-06-30T06:10:50.605Z,61.25
2017-06-30T06:11:50.541Z,61.05
2017-06-30T06:12:50.478Z,61.34
2017-06-30T06:13:50.418Z,60.47
2017-06-30T06:14:50.357Z,61.34
2017-06-30T06:15:50.295Z,60.67
2017-06-30T06:16:50.232Z,60.47
2017-06-30T06:17:50.169Z,60.86
2017-06-30T06:18:50.108Z,61.05
2017-06-30T06:19:50.047Z,60.47
2017-06-30T06:20:49.987Z,60.67
2017-06-30T06:21:49.926Z,60.76
2017-06-30T06:22:49.866Z,60.47
2017-06-30T06:23:49.800Z,60.76
2017-06-30T06:24:49.738Z,61.05
2017-06-30T06:25:49.678Z,60.67
2017-06-30T06:26:49.618Z,61.05
2017-06-30T06:27:49.255Z,60.86
2017-06-30T06:28:49.496Z,61.25
2017-06-30T06:29:49.432Z,60.76
2017-06-30T06:30:49.369Z,61.15
2017-06-30T06:31:49.308Z,61.15
2017-06-30T06:32:49.248Z,60.96
2017-06-30T06:33:49.185Z,60.96
2017-06-30T06:34:49.324Z,61.15
2017-06-30T06:35:49.060Z,60.96
2017-06-30T06:36:48.998Z,61.34
2017-06-30T06:37:48.937Z,60.28
2017-06-30T06:38:48.875Z,60.18
2017-06-30T06:39:48.814Z,60.96
2017-06-30T06:40:48.555Z,60.86
2017-06-30T06:41:48.693Z,61.25
2017-06-30T06:42:48.630Z,61.05
2017-06-30T06:43:48.568Z,60.47
2017-06-30T06:44:48.506Z,60.67
2017-06-30T06:46:48.382Z,60.57
2017-06-30T06:47:48.321Z,60.67
2017-06-30T06:48:48.258Z,61.34
2017-06-30T06:49:48.196Z,60.96
2017-06-30T06:50:48.134Z,61.05
2017-06-30T06:51:48.073Z,60.96
2017-06-30T06:52:48.010Z,60.57
2017-06-30T06:53:47.953Z,60.67
2017-06-30T06:54:47.888Z,61.15
2017-06-30T06:55:47.827Z,60.67
2017-06-30T06:56:47.767Z,60.69
2017-06-30T06:57:47.706Z,60.57
2017-06-30T06:58:47.644Z,60.38
2017-06-30T06:59:47.584Z,60.38
2017-06-30T07:00:47.618Z,60.57
2017-06-30T07:01:47.456Z,60.86
2017-06-30T07:02:47.398Z,61.44
2017-06-30T07:03:47.333Z,60.79
2017-06-30T07:04:47.277Z,60.99
2017-06-30T07:05:47.213Z,61.08
2017-06-30T07:06:47.150Z,60.47
2017-06-30T07:07:47.091Z,60.86
2017-06-30T07:08:47.044Z,61.54
2017-06-30T07:09:46.963Z,60.6
2017-06-30T07:10:46.908Z,60.99
2017-06-30T07:11:46.841Z,61.08
2017-06-30T07:12:46.779Z,61.57
2017-06-30T07:13:46.721Z,61.37
2017-06-30T07:14:46.655Z,61.18
2017-06-30T07:15:46.594Z,60.5
2017-06-30T07:16:46.540Z,60.79
2017-06-30T07:17:46.472Z,61.57
2017-06-30T07:18:46.408Z,61.08
2017-06-30T07:19:46.350Z,60.79
2017-06-30T07:20:46.287Z,60.69
2017-06-30T07:21:46.223Z,60.69
2017-06-30T07:22:46.162Z,60.41
2017-06-30T07:23:46.105Z,60.6
2017-06-30T07:24:46.040Z,60.69
2017-06-30T07:25:45.979Z,61.18
2017-06-30T07:26:45.917Z,61.18
2017-06-30T07:27:45.855Z,61.66
2017-06-30T07:28:45.794Z,62.15
2017-06-30T07:29:45.733Z,60.5
2017-06-30T07:30:45.674Z,61.47
2017-06-30T07:31:45.611Z,61.18
2017-06-30T07:32:45.552Z,61.47
2017-06-30T07:33:45.485Z,61.76
2017-06-30T07:34:45.425Z,61.57
2017-06-30T07:35:45.164Z,62.44
2017-06-30T07:36:45.315Z,62.44
2017-06-30T07:37:45.241Z,62.05
2017-06-30T07:38:45.178Z,62.44
2017-06-30T07:39:45.117Z,62.34
2017-06-30T07:40:45.158Z,62.15
2017-06-30T07:41:44.994Z,62.34
2017-06-30T07:42:44.933Z,62.53
2017-06-30T07:43:44.874Z,62.34
2017-06-30T07:44:44.809Z,62.44
2017-06-30T07:45:44.748Z,62.24
2017-06-30T07:46:44.690Z,62.53
2017-06-30T07:47:44.625Z,62.95
2017-06-30T07:48:44.570Z,63.05
2017-06-30T07:49:44.502Z,63.14
2017-06-30T07:50:44.441Z,62.92
2017-06-30T07:51:44.382Z,63.14
2017-06-30T07:52:44.322Z,63.82
2017-06-30T07:53:44.259Z,62.76
2017-06-30T07:54:44.203Z,62.66
2017-06-30T07:55:44.241Z,62.85
2017-06-30T07:56:44.077Z,62.56
2017-06-30T07:57:44.015Z,62.76
2017-06-30T07:58:43.951Z,62.47
2017-06-30T07:59:43.899Z,61.69
2017-06-30T08:00:43.832Z,61.79
2017-06-30T08:01:43.768Z,61.79
2017-06-30T08:02:43.708Z,61.6
2017-06-30T08:03:43.647Z,61.89
2017-06-30T08:04:43.586Z,61.6
2017-06-30T08:05:43.523Z,61.21
2017-06-30T08:06:43.463Z,61.21
2017-06-30T08:07:43.401Z,61.21
2017-06-30T08:08:43.340Z,61.6
2017-06-30T08:09:42.979Z,61.4
2017-06-30T08:10:43.220Z,61.3
2017-06-30T08:11:43.159Z,61.11
2017-06-30T08:12:43.097Z,61.11
2017-06-30T08:13:43.034Z,61.11
2017-06-30T08:14:42.973Z,61.79
2017-06-30T08:15:42.912Z,61.21
2017-06-30T08:16:42.849Z,61.79
2017-06-30T08:17:42.788Z,61.4
2017-06-30T08:18:42.727Z,61.69
2017-06-30T08:19:42.668Z,61.69
2017-06-30T08:20:42.304Z,61.79
2017-06-30T08:21:42.543Z,61.89
2017-06-30T08:22:42.483Z,61.72
2017-06-30T08:23:42.423Z,61.72
2017-06-30T08:24:42.359Z,62.5
2017-06-30T08:25:42.299Z,61.63
2017-06-30T08:26:42.238Z,61.63
2017-06-30T08:27:42.176Z,62.4
2017-06-30T08:28:42.119Z,63.46
2017-06-30T08:29:41.756Z,63.18
2017-06-30T08:30:42.294Z,63.27
2017-06-30T08:31:41.935Z,62.66
2017-06-30T08:32:41.874Z,62.88
2017-06-30T08:33:41.810Z,63.53
2017-06-30T08:34:41.749Z,62.69
2017-06-30T08:35:41.844Z,63.14
2017-06-30T08:36:41.630Z,62.98
2017-06-30T08:37:41.566Z,62.3
2017-06-30T08:38:41.203Z,62.79
2017-06-30T08:39:41.448Z,62.69
2017-06-30T08:40:41.080Z,62.59
2017-06-30T08:41:41.337Z,62.4
2017-06-30T08:42:41.259Z,61.63
2017-06-30T08:43:41.199Z,62.4
2017-06-30T08:44:41.144Z,62.4
2017-06-30T08:45:41.076Z,61.6
2017-06-30T08:46:41.022Z,61.63
2017-06-30T08:47:40.966Z,61.5
2017-06-30T08:48:40.893Z,62.11
2017-06-30T08:49:40.832Z,62.5
2017-06-30T08:50:40.770Z,61.98
2017-06-30T08:51:40.410Z,62.47
2017-06-30T08:52:40.650Z,62.01
2017-06-30T08:53:40.592Z,62.59
2017-06-30T08:54:40.526Z,62.5
2017-06-30T08:55:40.465Z,62.5
2017-06-30T08:56:40.404Z,61.6
2017-06-30T08:57:40.350Z,61.11
2017-06-30T08:58:40.284Z,61.79
2017-06-30T08:59:40.223Z,60.72
2017-06-30T09:00:40.160Z,60.82
2017-06-30T09:01:40.100Z,59.95
2017-06-30T09:02:40.038Z,59.95
2017-06-30T09:03:39.975Z,60.34
2017-06-30T09:04:39.915Z,59.76
2017-06-30T09:07:03.239Z,59.86
2017-06-30T09:07:48.278Z,59.66
2017-06-30T09:08:48.218Z,60.05
2017-06-30T09:09:48.155Z,59.76
2017-06-30T09:11:48.030Z,60.34
2017-06-30T09:12:48.091Z,60.34
2017-06-30T09:13:47.906Z,60.14
2017-06-30T09:14:47.846Z,60.34
2017-06-30T09:16:02.685Z,60.05
2017-06-30T09:16:47.725Z,59.95
2017-06-30T09:17:47.663Z,60.34
2017-06-30T09:18:47.607Z,60.31
2017-06-30T09:19:47.238Z,60.14
2017-06-30T09:20:47.480Z,60.14
2017-06-30T09:21:47.668Z,59.83
2017-06-30T09:22:47.361Z,60.02
2017-06-30T09:23:47.299Z,59.86
2017-06-30T09:24:47.235Z,59.83
2017-06-30T09:25:47.171Z,59.86
2017-06-30T09:27:47.055Z,59.56
2017-06-30T09:28:46.989Z,60.02
2017-06-30T09:29:46.933Z,60.11
2017-06-30T09:30:46.867Z,59.73
2017-06-30T09:31:46.805Z,59.53
2017-06-30T09:32:46.747Z,59.25
2017-06-30T09:33:46.682Z,59.15
2017-06-30T09:34:46.619Z,59.15
2017-06-30T09:35:46.263Z,59.34
2017-06-30T09:36:46.497Z,59.25
2017-06-30T09:37:46.685Z,59.15
2017-06-30T09:38:46.374Z,59.44
2017-06-30T09:39:46.313Z,59.44
2017-06-30T09:40:46.250Z,59.44
2017-06-30T09:41:46.191Z,59.44
2017-06-30T09:42:46.138Z,59.44
2017-06-30T09:43:46.070Z,59.34
2017-06-30T09:44:46.008Z,59.34
2017-06-30T09:45:45.948Z,59.25
2017-06-30T09:46:45.884Z,59.44
2017-06-30T09:47:45.820Z,59.63
2017-06-30T09:48:45.461Z,59.44
2017-06-30T09:49:45.397Z,59.63
2017-06-30T09:50:45.655Z,59.25
2017-06-30T09:51:45.578Z,59.44
2017-06-30T09:52:45.535Z,59.53
2017-06-30T09:53:45.453Z,59.44
2017-06-30T09:54:45.397Z,59.34
2017-06-30T09:55:45.330Z,59.53
2017-06-30T09:56:45.267Z,59.44
2017-06-30T09:57:45.239Z,58.86
2017-06-30T09:58:45.400Z,59.34
2017-06-30T09:59:45.085Z,59.15
2017-06-30T10:00:45.022Z,59.34
2017-06-30T10:01:44.959Z,59.34
2017-06-30T10:02:44.898Z,59.44
2017-06-30T10:03:44.841Z,59.25
2017-06-30T10:04:44.777Z,59.44
2017-06-30T10:05:44.713Z,59.34
2017-06-30T10:06:44.656Z,59.44
2017-06-30T10:07:44.590Z,59.44
2017-06-30T10:08:44.527Z,59.25
2017-06-30T10:09:44.470Z,59.34
2017-06-30T10:10:44.407Z,59.44
2017-06-30T10:11:44.346Z,59.25
2017-06-30T10:12:44.280Z,59.34
2017-06-30T10:13:44.170Z,59.34
2017-06-30T10:14:44.160Z,59.25
2017-06-30T10:15:44.196Z,59.34
2017-06-30T10:16:43.731Z,59.15
2017-06-30T10:17:43.978Z,59.25
2017-06-30T10:18:43.916Z,59.15
2017-06-30T10:19:43.855Z,59.53
2017-06-30T10:20:58.738Z,59.73
2017-06-30T10:21:43.728Z,59.73
2017-06-30T10:22:43.668Z,59.92
2017-06-30T10:23:43.605Z,59.83
2017-06-30T10:24:43.541Z,59.73
2017-06-30T10:25:43.480Z,59.73
2017-06-30T10:28:06.598Z,59.7
2017-06-30T10:29:06.436Z,59.73
2017-06-30T10:30:06.378Z,59.73
2017-06-30T10:31:06.356Z,59.63
2017-06-30T10:32:06.252Z,59.92
2017-06-30T10:35:14.864Z,59.73
2017-06-30T10:36:14.550Z,59.83
2017-06-30T10:37:14.185Z,59.73
2017-06-30T10:38:14.430Z,59.73
2017-06-30T10:39:14.363Z,59.73
2017-06-30T10:40:29.002Z,59.63
2017-06-30T10:41:14.241Z,59.63
2017-06-30T10:42:14.184Z,59.34
2017-06-30T10:43:14.118Z,59.8
2017-06-30T10:44:14.055Z,60.11
2017-06-30T10:45:13.998Z,59.63
2017-06-30T10:47:13.871Z,59.92
2017-06-30T10:48:13.808Z,59.83
2017-06-30T10:49:13.746Z,60.21
2017-06-30T10:50:13.689Z,59.83
2017-06-30T10:51:13.323Z,59.8
2017-06-30T10:53:13.503Z,59.8
2017-06-30T10:54:13.441Z,59.8
2017-06-30T10:55:28.327Z,59.51
2017-06-30T10:56:13.316Z,60.21
2017-06-30T10:57:13.258Z,59.6
2017-06-30T10:58:13.197Z,59.83
2017-06-30T10:59:12.826Z,59.89
2017-06-30T11:00:13.068Z,59.6
2017-06-30T11:02:12.945Z,60.09
2017-06-30T11:03:12.882Z,59.8
2017-06-30T11:04:12.822Z,59.6
2017-06-30T11:05:12.760Z,59.7
2017-06-30T11:06:12.397Z,59.8
2017-06-30T11:07:12.739Z,59.89
2017-06-30T11:08:12.273Z,59.92
2017-06-30T11:09:12.210Z,59.63
2017-06-30T11:10:12.450Z,59.63
2017-06-30T11:11:12.088Z,59.7
2017-06-30T11:12:12.432Z,60.02
2017-06-30T11:13:12.266Z,59.92
2017-06-30T11:14:12.206Z,59.73
2017-06-30T11:16:49.823Z,59.83
2017-06-30T11:19:58.186Z,59.83
2017-06-30T11:20:58.118Z,60.02
2017-06-30T11:21:58.073Z,59.73
2017-06-30T11:22:57.702Z,59.73
2017-06-30T11:23:57.934Z,59.83
2017-06-30T11:25:12.574Z,59.83
2017-06-30T11:25:57.819Z,60.11
2017-06-30T11:26:57.968Z,59.89
2017-06-30T11:27:57.688Z,59.63
2017-06-30T11:28:57.640Z,59.6
2017-06-30T11:29:57.260Z,59.99
2017-06-30T11:32:20.683Z,59.6
2017-06-30T11:33:20.519Z,59.7
2017-06-30T11:34:20.459Z,59.8
2017-06-30T11:35:20.397Z,59.22
2017-06-30T11:36:20.337Z,59.31
2017-06-30T11:38:19.911Z,59.22
2017-06-30T11:39:20.153Z,59.12
2017-06-30T11:40:34.688Z,59.02
2017-06-30T11:41:20.030Z,59.12
2017-06-30T11:42:19.967Z,59.12
2017-06-30T11:43:34.505Z,59.02
2017-06-30T11:44:19.846Z,59.02
2017-06-30T11:45:19.783Z,59.22
2017-06-30T11:46:19.719Z,59.12
2017-06-30T11:47:19.656Z,59.12
2017-06-30T11:48:19.595Z,59.12
2017-06-30T11:49:19.635Z,59.12
2017-06-30T11:50:34.271Z,59.02
2017-06-30T11:51:19.413Z,59.12
2017-06-30T11:52:19.346Z,59.12
2017-06-30T11:53:19.286Z,59.12
2017-06-30T11:54:18.923Z,59.12
2017-06-30T11:55:19.160Z,59.31
2017-06-30T11:56:19.349Z,59.22
2017-06-30T11:57:19.038Z,59.22
2017-06-30T11:58:18.979Z,59.12
2017-06-30T11:59:18.613Z,59.51
2017-06-30T12:00:18.549Z,59.8
2017-06-30T12:01:18.790Z,59.8
2017-06-30T12:02:18.732Z,59.89
2017-06-30T12:03:18.671Z,59.89
2017-06-30T12:04:18.608Z,59.7
2017-06-30T12:05:18.800Z,59.8
2017-06-30T12:06:18.481Z,59.6
2017-06-30T12:07:18.419Z,59.6
2017-06-30T12:08:18.366Z,59.99
2017-06-30T12:09:18.298Z,59.8
2017-06-30T12:10:18.391Z,59.8
2017-06-30T12:11:18.171Z,59.7
2017-06-30T12:12:18.109Z,59.8
2017-06-30T12:13:18.049Z,59.51
2017-06-30T12:14:17.990Z,59.22
2017-06-30T12:16:17.862Z,59.41
2017-06-30T12:17:17.801Z,59.31
2017-06-30T12:18:17.740Z,59.22
2017-06-30T12:19:17.677Z,59.31
2017-06-30T12:20:17.613Z,59.41
2017-06-30T12:22:17.493Z,59.02
2017-06-30T12:23:17.429Z,59.12
2017-06-30T12:24:17.370Z,59.22
2017-06-30T12:25:17.706Z,58.93
2017-06-30T12:26:17.246Z,58.93
2017-06-30T12:27:17.281Z,58.64
2017-06-30T12:28:17.119Z,58.83
2017-06-30T12:29:17.060Z,58.83
2017-06-30T12:30:17.156Z,59.02
2017-06-30T12:31:16.933Z,59.02
2017-06-30T12:32:16.570Z,58.83
2017-06-30T12:33:16.509Z,58.73
2017-06-30T12:34:16.748Z,58.64
2017-06-30T12:35:17.038Z,58.83
2017-06-30T12:36:16.626Z,58.64
2017-06-30T12:37:16.565Z,58.93
2017-06-30T12:38:16.500Z,58.73
2017-06-30T12:39:16.443Z,58.83
2017-06-30T12:40:16.225Z,58.73
2017-06-30T12:41:16.315Z,58.83
2017-06-30T12:42:15.950Z,58.93
2017-06-30T12:43:16.193Z,58.83
2017-06-30T12:44:16.132Z,58.93
2017-06-30T12:45:16.219Z,58.35
2017-06-30T12:46:16.010Z,58.64
2017-06-30T12:47:15.946Z,58.45
2017-06-30T12:48:15.884Z,58.64
2017-06-30T12:49:15.820Z,58.64
2017-06-30T12:50:15.907Z,58.25
2017-06-30T12:51:15.698Z,58.54
2017-06-30T12:52:15.335Z,58.45
2017-06-30T12:53:15.571Z,58.15
2017-06-30T12:54:15.511Z,57.67
2017-06-30T12:55:15.451Z,57.67
2017-06-30T12:56:15.687Z,57.96
2017-06-30T12:57:15.332Z,57.87
2017-06-30T12:58:15.263Z,57.77
2017-06-30T12:59:15.201Z,57.87
2017-06-30T13:00:15.391Z,58.06
2017-06-30T13:01:14.778Z,57.48
2017-06-30T13:02:15.017Z,57.38
2017-06-30T13:03:14.955Z,57.09
2017-06-30T13:04:14.893Z,57.29
2017-06-30T13:05:14.980Z,57.29
2017-06-30T13:06:14.768Z,57.29
2017-06-30T13:07:14.707Z,57.48
2017-06-30T13:08:14.643Z,57.48
2017-06-30T13:09:14.591Z,57.38
2017-06-30T13:10:14.671Z,57.38
2017-06-30T13:11:14.459Z,57.57
2017-06-30T13:12:14.396Z,57.19
2017-06-30T13:13:14.334Z,57.09
2017-06-30T13:14:14.277Z,57.19
2017-06-30T13:15:14.532Z,56.9